Date,TemperatureHighF,TemperatureAvgF,TemperatureLowF,DewpointHighF,DewpointAvgF,DewpointLowF,HumidityHigh,HumidityAvg,HumidityLow,PressureMaxIn,PressureMinIn,WindSpeedMaxMPH,WindSpeedAvgMPH,GustSpeedMaxMPH,PrecipitationSumIn
2014-1-12,70.6,62.6,53.1,41.0,34.7,28.0,38,36,33,30.07,29.98,5,1,0,0.00
2014-1-13,77.2,64.5,49.8,49.0,38.6,26.0,40,39,37,30.04,29.86,15,1,0,0.00
2014-1-14,71.8,67.0,58.3,46.0,41.5,34.0,40,40,38,29.90,29.81,14,2,0,0.22
2014-1-15,63.1,57.4,51.7,36.0,32.0,28.0,40,38,36,29.96,29.84,13,1,0,0.02
2014-1-16,55.4,37.5,46.0,31.0,-8.6,-99.9,40,27,35,30.05,29.87,18,-266,0,0.03
2014-1-17,62.3,37.1,38.0,34.0,-13.1,-99.9,39,25,33,30.11,30.00,8,-325,0,0.00
2014-1-18,55.7,39.2,49.1,31.0,-6.1,-99.9,40,27,34,30.17,29.99,11,-258,0,0.00
2014-1-19,65.5,40.1,39.1,38.0,-8.8,-99.9,40,26,36,30.12,30.02,13,-311,0,0.00
2014-1-20,70.1,59.6,49.2,42.0,34.4,26.0,40,39,36,30.02,29.93,11,1,0,0.02
2014-1-21,69.9,62.7,57.2,43.0,21.7,-99.9,41,34,36,29.93,29.73,24,6,0,0.02
2014-1-22,57.2,50.1,42.5,31.0,24.3,18.0,38,36,35,30.09,29.81,15,3,0,0.00
2014-1-23,62.9,48.4,36.2,33.0,22.6,13.0,40,36,33,30.23,30.05,12,1,0,0.00
2014-1-24,60.2,49.1,41.6,31.0,22.5,16.0,38,35,33,30.34,30.15,15,3,0,0.00
2014-1-25,66.8,53.9,44.8,39.0,28.4,20.0,39,38,36,30.15,29.93,13,1,0,0.00
2014-1-26,64.8,60.6,54.7,39.0,35.8,30.0,40,40,39,29.96,29.86,10,1,0,0.01
2014-1-27,74.4,65.8,61.5,47.0,40.5,37.0,40,40,38,29.91,29.83,13,2,0,0.16
2014-1-28,77.2,66.8,56.6,49.0,16.4,-99.9,41,32,36,29.94,29.84,12,1,0,0.01
2014-1-29,64.8,55.7,45.8,40.0,15.7,-99.9,41,35,38,30.06,29.86,12,3,0,0.34
2014-1-30,53.3,49.5,46.7,29.0,23.3,-99.9,41,39,40,30.05,29.96,9,3,0,0.17
2014-1-31,66.3,58.8,52.2,41.0,-50.6,-99.9,41,15,40,29.98,29.89,8,2,0,0.31
2014-2-1,78.6,69.3,62.7,51.0,-23.5,-99.9,41,20,37,30.00,29.92,14,1,0,0.02
2014-2-2,85.1,70.5,62.4,55.0,4.8,-99.9,41,28,35,30.02,29.91,6,1,0,0.01
2014-2-3,80.1,70.0,62.1,52.0,26.1,-99.9,41,34,37,29.99,29.89,12,1,0,0.05
2014-2-4,83.8,72.2,64.2,54.0,-8.7,-99.9,41,23,36,29.99,29.87,10,1,0,0.05
2014-2-5,78.8,72.8,67.6,52.0,40.6,-99.9,41,38,38,29.95,29.87,19,3,0,0.02
2014-2-6,73.5,66.7,55.4,47.0,15.8,-99.9,41,32,38,30.02,29.90,10,2,0,0.02
2014-2-7,64.2,58.1,51.0,38.0,33.0,27.0,40,39,38,30.04,29.96,12,4,0,0.00
2014-2-8,67.8,60.9,58.1,42.0,36.1,34.0,40,40,39,29.99,29.92,12,2,0,0.01
2014-2-9,72.0,61.4,55.4,44.0,35.8,31.0,40,39,35,30.02,29.91,9,1,0,0.03
2014-2-10,76.8,62.1,50.7,47.0,35.9,27.0,40,38,35,29.99,29.89,11,1,0,0.06
2014-2-11,74.9,63.4,54.2,46.0,37.3,30.0,40,38,36,29.95,29.87,13,1,0,0.02
2014-2-12,77.0,63.3,52.9,49.0,28.0,-99.9,41,37,37,29.91,29.61,25,2,0,1.51
2014-2-13,66.9,58.1,49.2,42.0,31.1,-99.9,40,38,37,29.87,29.61,21,7,0,0.01
2014-2-14,64.7,53.6,43.1,36.0,28.2,20.0,40,38,34,29.97,29.85,7,1,0,0.00
2014-2-15,67.8,58.6,49.1,41.0,32.6,25.0,40,38,35,30.04,29.82,18,5,0,0.01
2014-2-16,68.4,55.4,43.2,39.0,29.5,20.0,40,37,33,30.09,30.00,10,1,0,0.01
2014-2-17,79.6,61.3,46.0,48.0,34.3,22.0,40,37,33,30.11,30.02,9,1,0,0.04
2014-2-18,77.7,64.5,51.9,48.0,37.8,27.0,40,37,35,30.12,30.01,10,1,0,0.05
2014-2-19,80.5,67.3,57.3,50.0,40.8,33.0,40,38,35,30.05,29.93,13,1,0,0.00
2014-2-20,84.1,70.9,57.8,54.0,44.0,33.0,41,38,35,30.02,29.90,19,1,0,0.00
2014-2-21,80.5,72.9,65.8,52.0,35.9,-99.9,41,36,37,29.93,29.87,23,4,0,0.00
2014-2-22,81.2,73.3,69.1,53.0,30.4,-99.9,41,35,37,29.96,29.87,10,1,0,0.03
2014-2-23,79.9,72.2,68.3,52.0,-2.1,-99.9,41,26,37,29.95,29.86,14,2,0,0.00
2014-2-24,77.7,70.3,66.4,49.0,44.2,41.0,40,39,37,29.94,29.80,11,1,0,0.00
2014-2-25,76.8,68.3,63.7,49.0,14.6,-99.9,41,31,37,29.93,29.83,11,1,0,0.00
2014-2-26,74.4,66.7,60.2,47.0,3.5,-99.9,41,29,38,29.85,29.62,30,4,0,0.00
2014-2-27,65.0,60.1,53.2,41.0,34.9,29.0,41,39,37,29.85,29.66,12,2,0,0.00
2014-2-28,66.3,56.8,49.2,37.0,30.3,24.0,39,37,34,30.00,29.82,11,1,0,0.00
2014-3-1,75.4,61.0,47.6,45.0,34.4,24.0,40,37,34,30.10,29.95,9,1,0,0.00
2014-3-2,80.7,65.5,55.0,50.0,38.9,31.0,40,38,34,30.08,29.95,15,2,0,0.00
2014-3-3,76.5,67.2,57.5,48.0,41.0,33.0,40,39,36,29.96,29.87,18,3,0,0.00
2014-3-4,78.1,68.8,61.8,50.0,23.6,-99.9,41,34,37,29.92,29.84,17,2,0,0.00
2014-3-5,79.9,69.6,62.3,51.0,15.7,-99.9,41,31,36,29.91,29.81,13,2,0,0.00
2014-3-6,68.6,66.2,63.1,43.0,1.0,-99.9,41,28,39,29.88,29.59,19,4,0,0.00
2014-3-7,67.4,61.3,53.5,42.0,35.7,28.0,40,39,37,29.93,29.66,19,6,0,0.00
2014-3-8,71.5,56.2,44.2,43.0,30.7,20.0,40,38,35,30.06,29.93,10,1,0,0.00
2014-3-9,77.6,62.8,52.3,48.0,22.2,-99.9,40,34,35,30.08,29.97,14,1,0,0.00
2014-3-10,74.9,64.0,56.0,45.0,37.6,32.0,40,38,35,30.02,29.88,12,1,0,0.00
2014-3-11,77.0,65.0,53.8,48.0,38.8,30.0,40,38,35,29.90,29.72,15,2,0,0.00
2014-3-24,66.0,65.2,64.3,41.0,-79.0,-99.9,40,6,40,29.83,29.78,3,0,0,1.47
2014-3-25,71.8,66.5,61.8,45.0,-30.3,-99.9,39,18,36,29.92,29.73,18,6,0,0.32
2014-3-26,63.7,56.0,47.1,35.0,28.1,21.0,37,34,33,30.17,29.93,17,4,0,0.00
2014-3-27,66.0,58.9,50.4,40.0,33.5,26.0,40,38,37,30.18,30.07,11,3,0,0.04
2014-3-28,78.5,71.0,61.8,50.0,44.1,36.0,39,38,37,30.07,29.88,19,3,0,0.00
2014-3-29,77.9,71.7,67.6,51.0,25.8,-99.9,40,34,39,29.90,29.78,24,5,0,0.63
2014-3-30,70.8,64.0,56.3,43.0,37.3,31.0,40,37,33,29.98,29.82,13,3,0,0.00
2014-3-31,75.1,63.0,51.4,46.0,36.2,28.0,40,37,33,30.04,29.96,7,1,0,0.00
2014-4-1,81.6,65.7,52.2,51.0,39.1,28.0,40,38,34,30.05,29.97,9,1,0,0.00
2014-4-2,83.0,68.3,58.0,53.0,41.4,34.0,40,38,34,30.06,29.98,9,1,0,0.00
2014-4-3,81.6,69.9,60.4,52.0,42.9,36.0,40,38,35,30.02,29.91,14,2,0,0.00
2014-4-4,81.4,70.7,60.7,52.0,32.0,-99.9,40,35,35,29.94,29.87,13,2,0,0.00
2014-4-5,81.2,71.6,60.5,52.0,-0.3,-99.9,40,25,36,29.93,29.83,11,1,0,0.01
2014-4-6,82.2,72.9,64.0,53.0,9.2,-99.9,40,28,36,29.91,29.80,12,2,0,0.00
2014-4-7,84.9,75.6,66.1,55.0,23.8,-99.9,40,31,36,29.82,29.70,23,3,0,0.00
2014-4-8,77.6,72.6,67.1,51.0,44.6,-99.9,40,39,37,29.77,29.62,20,6,0,0.65
2014-4-9,68.9,65.6,59.5,40.0,38.3,34.0,39,37,35,30.05,29.77,18,6,0,0.02
2014-4-10,79.0,66.9,55.3,48.0,39.3,31.0,40,37,34,30.14,30.05,14,1,0,0.00
2014-4-11,81.4,69.8,56.0,51.0,42.3,31.0,39,37,35,30.13,29.98,10,1,0,0.00
2014-4-12,83.2,72.9,63.7,52.0,26.3,-99.9,40,32,34,30.05,29.93,12,2,0,0.00
2014-4-13,84.5,72.2,61.6,54.0,44.8,37.0,40,38,35,29.99,29.87,20,3,0,0.00
2014-4-14,84.3,75.4,67.9,54.0,44.9,-99.9,40,37,35,29.90,29.76,13,2,0,0.00
2014-4-15,81.1,73.3,66.1,53.0,1.0,-99.9,40,27,38,29.84,29.68,26,6,0,0.01
2014-4-16,76.7,65.3,54.1,48.0,38.5,29.0,39,38,36,29.99,29.84,14,5,0,0.00
2014-4-17,82.4,70.9,62.1,54.0,44.2,37.0,40,38,37,30.03,29.94,19,7,0,0.02
2014-4-18,79.4,71.0,67.8,52.0,18.3,-99.9,40,32,37,29.98,29.78,14,4,0,0.46
2014-4-19,71.8,68.1,63.9,44.0,7.2,-99.9,40,29,37,29.87,29.75,20,5,0,0.00
2014-4-20,72.7,66.3,61.3,45.0,23.0,-99.9,40,34,37,29.94,29.84,8,1,0,0.00
2014-4-21,71.6,65.3,61.8,44.0,39.1,36.0,39,38,37,29.96,29.84,7,2,0,0.00
2014-4-22,74.6,66.1,57.8,47.0,18.4,-99.9,40,32,37,29.87,29.74,11,2,0,0.00
2014-4-23,76.7,69.5,63.2,48.0,42.8,38.0,40,38,35,29.84,29.76,11,2,0,0.00
2014-4-24,82.2,70.2,60.1,53.0,8.1,-99.9,40,28,35,29.90,29.80,11,1,0,0.00
2014-4-25,81.8,72.7,64.3,52.0,0.2,-99.9,40,25,36,29.91,29.82,17,1,0,0.01
2014-4-26,84.0,74.5,65.8,54.0,20.6,-99.9,40,31,36,29.90,29.82,14,2,0,0.00
2014-4-27,86.5,76.0,66.3,56.0,18.8,-99.9,40,30,35,29.88,29.79,13,2,0,0.00
2014-4-28,88.4,77.7,68.9,57.0,40.8,-99.9,40,35,34,29.85,29.75,11,2,0,0.00
2014-4-29,88.4,79.2,71.1,58.0,32.9,-99.9,40,33,36,29.88,29.73,17,3,0,0.00
2014-4-30,88.0,78.3,70.8,58.0,32.4,-99.9,40,33,35,29.91,29.80,15,3,0,0.00
2014-5-1,85.9,77.5,69.8,56.0,38.2,-99.9,40,35,36,29.91,29.82,24,4,0,0.00
2014-5-2,81.2,74.1,69.8,53.0,-59.1,-99.9,40,10,38,29.84,29.76,22,2,0,2.20
2014-5-3,75.3,70.0,65.5,49.0,17.5,-99.9,41,33,39,29.92,29.76,10,2,0,0.71
2014-5-4,84.7,72.9,61.5,53.0,45.3,37.0,40,37,34,29.98,29.88,11,2,0,0.00
2014-5-5,89.0,76.2,64.3,57.0,48.1,39.0,40,37,34,29.96,29.84,11,1,0,0.00
2014-5-6,89.3,77.2,65.0,57.0,48.9,39.0,39,37,34,29.91,29.83,13,1,0,0.00
2014-5-7,89.9,78.5,68.4,59.0,50.4,43.0,40,38,35,30.00,29.88,11,1,0,0.00
2014-5-8,90.7,79.1,68.3,59.0,50.7,43.0,40,37,34,30.05,29.96,14,3,0,0.00
2014-5-9,89.9,78.1,69.4,59.0,50.3,44.0,40,38,34,30.05,29.92,16,3,0,0.00
2014-5-10,87.4,78.4,68.3,57.0,50.4,43.0,40,38,35,30.01,29.90,14,3,0,0.00
2014-5-11,88.6,80.4,73.3,58.0,51.9,47.0,40,37,35,30.01,29.90,18,2,0,0.00
2014-5-12,88.4,78.6,69.6,57.0,50.2,43.0,39,37,35,30.01,29.90,15,4,0,0.00
2014-5-13,88.6,78.3,70.4,58.0,50.6,45.0,40,38,36,29.95,29.83,19,5,0,0.00
2014-5-14,89.0,77.0,70.6,59.0,50.0,45.0,40,39,36,29.93,29.81,20,4,0,1.07
2014-5-15,83.0,76.5,72.7,55.0,49.7,46.0,40,39,37,29.88,29.78,19,4,0,0.13
2014-5-16,76.8,71.1,64.5,47.0,43.0,37.0,39,36,34,30.00,29.85,17,4,0,0.00
2014-5-17,82.0,71.6,61.5,51.0,43.0,35.0,39,36,33,30.04,29.94,13,3,0,0.00
2014-5-18,84.9,73.1,60.2,54.0,44.7,35.0,39,36,34,30.04,29.93,14,4,0,0.00
2014-5-19,85.7,74.6,62.0,55.0,46.3,37.0,40,37,34,30.04,29.96,13,4,0,0.00
2014-5-20,86.1,75.5,65.2,55.0,47.2,40.0,40,37,33,30.07,29.99,13,4,0,0.00
2014-5-21,87.2,74.4,63.5,56.0,46.6,38.0,40,37,34,30.07,29.98,14,2,0,0.00
2014-5-22,86.3,75.6,64.5,56.0,47.9,39.0,40,38,35,30.04,29.93,10,2,0,0.00
2014-5-23,85.1,76.9,68.6,56.0,49.6,43.0,40,38,36,29.99,29.91,15,2,0,0.00
2014-5-24,88.2,78.9,71.5,58.0,23.6,-99.9,40,31,35,29.98,29.88,10,1,0,0.01
2014-5-25,89.3,79.9,73.3,59.0,47.6,-99.9,40,37,36,29.98,29.88,15,1,0,0.07
2014-5-26,90.3,79.5,69.9,59.0,51.3,44.0,40,37,35,30.05,29.93,12,2,0,0.00
2014-5-27,88.4,74.8,71.3,58.0,48.6,46.0,40,40,35,29.95,29.91,7,1,0,0.72
2014-5-28,88.2,77.2,70.8,58.0,33.1,-99.9,40,34,35,29.95,29.85,15,2,0,0.02
2014-5-29,88.2,76.1,69.9,58.0,49.1,44.0,40,39,36,29.91,29.82,13,2,0,0.12
2014-5-30,88.0,75.7,69.4,58.0,6.1,-99.9,40,27,36,29.90,29.82,14,1,0,0.00
2014-5-31,88.8,76.6,69.6,59.0,-7.8,-99.9,40,23,35,29.91,29.82,11,1,0,0.07
2014-6-1,87.4,77.5,73.0,57.0,7.4,-99.9,40,27,36,29.93,29.87,16,3,0,0.07
2014-6-2,82.4,77.4,73.5,54.0,36.2,-99.9,40,35,37,29.98,29.89,15,6,0,0.01
2014-6-3,83.2,77.0,71.5,54.0,48.9,45.0,39,37,36,29.96,29.85,14,2,0,0.00
2014-6-4,87.2,77.1,69.3,57.0,48.9,43.0,39,37,35,29.88,29.79,12,1,0,0.00
2014-6-5,86.7,78.1,68.9,56.0,50.4,43.0,40,38,35,29.86,29.76,11,2,0,0.00
2014-6-6,86.7,80.2,72.7,57.0,32.2,-99.9,40,33,36,29.88,29.78,12,1,0,0.00
2014-6-7,87.6,80.1,72.3,57.0,52.2,47.0,40,38,36,29.91,29.79,12,1,0,0.00
2014-6-8,87.0,80.0,72.8,57.0,52.2,47.0,40,38,36,29.90,29.78,15,2,0,0.15
2014-6-9,88.2,79.3,71.3,58.0,30.0,-99.9,40,33,36,29.88,29.77,10,0,0,0.00
2014-6-10,88.6,80.1,70.9,58.0,44.4,-99.9,40,36,36,29.91,29.82,15,2,0,0.22
2014-6-11,80.1,74.0,72.1,53.0,19.4,-99.9,40,32,38,29.90,29.84,21,1,0,0.03
2014-6-18,87.0,76.5,71.6,57.0,47.9,-99.9,40,38,36,30.00,29.92,14,-14,0,1.03
2014-6-19,88.6,76.9,70.6,58.0,13.1,-99.9,41,29,36,30.00,29.94,10,1,0,0.05
2014-6-20,86.7,79.5,72.7,57.0,52.0,47.0,40,39,37,29.97,29.87,14,2,0,0.00
2014-6-21,87.8,81.2,74.6,58.0,53.3,49.0,40,38,36,29.91,29.80,12,2,0,0.01
2014-6-22,86.5,81.3,75.4,57.0,53.5,49.0,40,38,36,29.88,29.78,11,1,0,0.00
2014-6-23,87.2,81.6,76.3,58.0,53.5,50.0,40,38,36,29.98,29.83,15,3,0,0.01
2014-6-24,90.5,81.8,73.7,60.0,53.7,48.0,40,38,35,30.02,29.94,12,1,0,0.01
2014-6-25,92.1,83.0,75.4,62.0,54.7,49.0,40,38,35,30.02,29.90,10,1,0,0.00
2014-6-26,93.8,83.6,75.6,63.0,55.1,50.0,40,38,35,29.99,29.84,9,0,0,0.00
2014-6-27,93.8,80.7,73.7,62.0,52.8,48.0,40,38,35,30.00,29.90,13,1,0,0.53
2014-6-28,92.9,82.4,74.2,62.0,32.6,-99.9,40,32,35,30.02,29.93,7,0,0,0.00
2014-6-29,91.6,84.1,76.3,61.0,55.5,49.0,39,38,36,30.02,29.90,15,2,0,0.01
2014-6-30,93.2,82.5,75.3,62.0,54.3,49.0,40,38,35,29.96,29.79,9,1,0,0.00
2014-7-1,91.4,82.3,76.1,61.0,54.2,49.0,40,38,36,29.85,29.73,12,1,0,0.01
2014-7-2,90.7,82.4,75.6,60.0,54.5,49.0,40,38,36,29.84,29.76,16,3,0,0.43
2014-7-3,88.4,82.2,74.4,59.0,54.3,48.0,40,38,36,29.99,29.83,16,4,0,0.17
2014-7-4,87.8,80.7,74.7,58.0,50.0,-99.9,40,38,37,29.99,29.92,16,2,0,0.07
2014-7-5,88.0,81.0,75.1,59.0,53.2,49.0,40,38,37,30.00,29.93,13,2,0,0.00
2014-7-6,88.2,78.8,73.0,59.0,37.6,-99.9,40,35,37,29.98,29.90,15,2,0,0.00
2014-7-7,85.5,78.2,71.8,56.0,32.5,-99.9,40,34,37,30.00,29.90,5,0,0,0.19
2014-7-8,87.8,79.0,73.0,58.0,51.9,47.0,40,39,36,30.02,29.94,9,1,0,0.27
2014-7-9,88.8,79.3,73.0,59.0,15.2,-99.9,40,29,37,30.02,29.93,7,1,0,0.02
2014-7-10,88.6,78.5,73.0,59.0,46.9,47.0,40,35,36,30.01,29.92,19,1,0,1.73
2014-7-11,89.9,78.5,73.2,60.0,33.7,49.0,39,24,36,30.02,29.95,15,1,0,0.00
2014-7-12,92.1,79.2,73.0,61.0,49.4,47.0,40,37,35,30.01,29.94,14,1,0,0.21
2014-7-13,91.4,79.7,73.3,61.0,41.8,48.0,40,30,36,29.99,29.90,10,1,0,0.22
2014-7-14,90.3,79.8,73.5,60.0,46.9,47.0,40,34,36,29.96,29.89,28,1,0,1.06
2014-7-15,87.0,80.0,74.0,58.0,44.3,47.0,40,32,37,29.92,29.82,15,3,0,0.84
2014-7-16,81.4,76.6,74.0,55.0,34.5,48.0,40,27,39,29.87,29.80,12,0,0,1.26
2014-7-17,87.6,81.0,73.9,58.0,44.7,48.0,40,32,37,29.91,29.81,24,2,0,0.62
2014-7-18,89.5,81.9,73.0,59.0,53.8,47.0,40,38,35,29.96,29.88,6,0,0,0.00
2014-7-19,91.0,82.5,74.9,61.0,54.3,49.0,40,38,36,29.96,29.88,13,1,0,0.00
2014-7-20,90.5,82.9,75.4,60.0,54.8,49.0,40,38,36,29.95,29.88,12,1,0,0.00
2014-7-21,91.8,79.5,74.6,61.0,49.2,49.0,40,36,36,29.94,29.86,12,1,0,0.02
2014-7-22,89.5,79.9,72.8,60.0,49.5,47.0,40,36,36,29.95,29.87,5,0,0,0.00
2014-7-23,88.2,81.2,74.2,59.0,45.9,49.0,40,32,36,29.96,29.87,15,1,0,0.28
2014-7-24,89.3,81.8,76.0,60.0,51.0,50.0,40,36,36,29.95,29.85,11,1,0,1.05
2014-7-25,89.9,82.5,76.0,60.0,54.7,50.0,40,38,36,29.96,29.89,9,1,0,0.08
2014-7-26,89.0,82.5,76.3,59.0,54.8,50.0,40,38,37,29.99,29.91,10,1,0,0.59
2014-7-27,89.9,45.0,78.6,60.0,30.0,52.0,40,20,36,29.99,29.92,11,1,0,0.00
2014-8-5,89.0,37.7,78.8,59.0,25.0,51.0,38,16,36,29.95,0.00,5,0,0,0.00
2014-8-6,90.3,37.3,81.2,61.0,24.8,53.0,39,16,36,29.95,29.86,11,1,0,0.00
2014-8-7,90.3,36.9,85.1,60.0,24.5,57.0,38,15,36,29.90,29.82,10,1,0,0.00
2014-8-8,88.2,31.1,78.6,59.0,20.7,52.0,39,14,37,29.94,29.84,11,0,0,0.26
2014-8-9,89.5,34.7,82.0,59.0,23.0,54.0,38,15,36,29.96,29.87,12,2,0,0.00
2014-8-10,88.6,49.9,77.0,59.0,33.1,51.0,40,23,37,29.95,29.88,16,3,0,0.02
2014-8-11,89.3,81.7,76.0,59.0,53.8,49.0,40,38,36,29.94,29.87,17,2,0,0.00
2014-8-12,89.3,82.0,74.4,60.0,54.0,48.0,40,38,36,29.90,29.82,18,4,0,0.19
2014-8-13,89.5,83.0,76.5,59.0,55.0,50.0,40,38,36,29.90,29.84,17,3,0,0.00
2014-8-14,86.7,81.5,77.2,58.0,54.1,50.0,40,39,37,29.92,29.84,17,2,0,0.19
2014-8-15,79.0,77.3,74.9,53.0,51.1,49.0,40,40,40,29.93,29.85,5,1,0,0.53
2014-8-16,86.7,79.2,74.2,58.0,43.1,48.0,40,32,38,29.98,29.88,6,1,0,0.08
2014-8-17,91.6,82.3,75.6,61.0,54.6,50.0,40,39,36,30.00,29.91,10,1,0,0.07
2014-8-18,91.0,83.2,75.4,61.0,49.0,50.0,40,33,36,29.96,29.85,9,1,0,0.00
2014-8-19,91.0,83.1,75.6,61.0,55.0,50.0,40,38,36,29.93,29.85,7,1,0,0.00
2014-8-20,91.6,83.9,75.8,61.0,55.6,50.0,40,38,36,29.98,29.87,10,2,0,0.00
2014-8-21,95.1,81.9,70.6,63.0,50.2,45.0,41,35,35,30.01,29.90,29,1,0,2.47
2014-8-22,93.2,82.2,74.6,63.0,54.2,49.0,40,38,36,29.99,29.85,12,1,0,0.00
2014-8-23,94.0,82.9,74.6,63.0,54.6,49.0,40,38,35,29.88,29.74,10,1,0,0.00
2014-8-24,93.4,83.9,76.5,63.0,55.4,50.0,40,38,36,29.78,29.63,11,2,0,0.00
2014-8-25,91.6,83.2,77.6,61.0,54.8,50.0,40,38,35,29.74,29.64,19,6,0,0.00
2014-8-26,92.1,81.9,74.6,61.0,53.4,49.0,40,38,35,29.82,29.72,14,4,0,0.00
2014-8-27,92.1,82.1,73.7,61.0,53.5,47.0,40,37,35,29.87,29.78,12,2,0,0.00
2014-8-28,93.4,82.5,74.9,62.0,54.3,49.0,40,38,35,29.88,29.79,12,3,0,0.00
2014-8-29,88.2,81.1,74.0,59.0,53.5,48.0,40,39,37,29.96,29.84,9,2,0,0.01
2014-8-30,93.2,80.6,73.2,63.0,53.0,47.0,40,39,35,30.01,29.88,12,2,0,0.03
2014-8-31,92.9,80.6,74.0,62.0,53.0,48.0,40,39,35,30.01,29.90,23,2,0,0.01
2014-9-1,93.6,81.1,74.2,62.0,53.4,48.0,40,39,35,29.99,29.88,12,1,0,0.17
2014-9-2,91.2,81.1,75.1,61.0,53.5,49.0,40,39,35,29.96,29.83,11,1,0,0.00
2014-9-3,92.5,79.6,72.7,61.0,52.0,47.0,40,38,35,29.93,29.81,16,1,0,0.40
2014-9-4,89.0,78.6,73.5,59.0,51.5,48.0,40,39,36,29.99,29.89,13,1,0,0.01
2014-9-5,89.0,79.3,73.3,59.0,51.9,47.0,40,39,36,30.00,29.90,7,1,0,0.00
2014-9-6,90.7,77.5,72.3,60.0,50.7,47.0,41,39,36,29.95,29.84,12,1,0,0.27
2014-9-7,90.5,78.2,73.5,60.0,51.3,48.0,41,39,36,29.90,29.79,12,1,0,0.00
2014-9-8,87.4,77.9,72.7,58.0,50.9,47.0,40,39,37,29.94,29.85,12,1,0,0.48
2014-9-9,87.6,78.5,72.8,58.0,51.4,47.0,40,39,36,29.94,29.83,9,1,0,0.08
2014-9-10,90.5,80.4,73.7,60.0,52.8,48.0,41,39,36,29.90,29.80,13,2,0,0.01
2014-9-11,89.9,81.2,73.3,60.0,53.2,47.0,40,38,35,29.91,29.81,8,1,0,0.00
2014-9-12,88.6,80.0,74.6,59.0,52.6,49.0,40,39,37,29.88,29.76,16,3,0,0.01
2014-9-13,89.7,79.9,73.7,59.0,52.2,48.0,40,38,35,29.95,29.83,16,3,0,0.00
2014-9-14,89.0,79.0,72.8,59.0,51.6,47.0,40,39,36,30.02,29.91,10,1,0,0.00
2014-9-15,90.5,80.6,72.3,60.0,52.8,47.0,40,38,35,30.04,29.95,7,0,0,0.00
2014-9-16,89.3,80.9,75.1,59.0,53.0,49.0,40,38,35,30.01,29.86,15,1,0,0.00
2014-9-17,78.8,75.6,72.1,52.0,49.5,46.0,41,40,39,29.88,29.75,19,1,0,1.65
2014-9-18,89.9,79.6,71.1,60.0,49.2,46.0,41,36,35,29.83,29.73,4,0,0,0.01
2014-9-19,81.1,75.7,70.6,54.0,49.4,45.0,41,40,38,29.84,29.76,12,2,0,2.07
2014-9-20,83.4,75.9,71.5,54.0,49.5,46.0,41,40,37,29.83,29.75,7,2,0,0.20
2014-9-21,85.7,78.3,72.3,57.0,51.4,47.0,41,39,37,29.90,29.79,12,2,0,0.00
2014-9-22,84.1,75.2,73.0,56.0,49.2,47.0,41,40,38,29.91,29.84,7,1,0,0.53
2014-9-23,84.1,76.1,71.3,56.0,49.8,46.0,41,40,37,29.89,29.82,6,1,0,1.25
2014-9-24,86.1,76.6,72.0,57.0,50.2,47.0,41,40,37,29.95,29.87,7,1,0,0.13
2014-9-25,87.2,77.8,71.6,58.0,50.9,46.0,40,39,37,29.96,29.84,11,3,0,0.00
2014-9-26,88.8,78.2,74.0,59.0,51.5,48.0,41,40,37,29.89,29.79,9,1,0,2.01
2014-9-27,89.0,78.1,74.6,59.0,51.7,49.0,41,40,37,29.90,29.79,10,2,0,1.91
2014-9-28,89.5,79.0,74.2,60.0,52.5,49.0,41,40,37,29.90,29.76,11,2,0,3.17
2014-9-29,87.4,78.4,75.1,59.0,52.2,50.0,41,40,37,29.84,29.71,13,1,0,0.33
2014-9-30,85.3,78.5,75.4,57.0,52.4,50.0,41,40,38,29.75,29.67,14,2,0,0.65
2014-10-1,87.6,81.4,77.0,58.0,54.2,51.0,41,39,37,29.86,29.70,14,2,0,0.02
2014-10-2,89.7,81.0,75.3,60.0,53.7,50.0,41,39,36,29.92,29.82,7,0,0,0.01
2014-10-3,88.8,81.6,76.0,59.0,54.3,50.0,41,39,37,29.91,29.82,15,2,0,0.02
2014-10-4,84.1,77.3,71.6,56.0,50.4,45.0,41,39,37,29.85,29.73,16,4,0,1.39
2014-10-5,78.3,69.6,59.9,48.0,41.3,34.0,38,36,34,29.92,29.81,10,2,0,0.00
2014-10-6,82.4,72.2,60.9,53.0,45.0,36.0,40,38,36,29.95,29.86,11,2,0,0.00
2014-10-7,85.5,75.9,70.6,56.0,48.9,44.0,40,39,37,29.96,29.88,18,2,0,0.10
2014-10-8,89.7,79.0,71.5,59.0,51.3,46.0,40,38,35,30.02,29.90,0,0,0,0.00
2014-10-9,88.8,79.3,71.3,58.0,51.2,46.0,40,38,35,29.98,29.87,0,0,0,0.00
2014-10-10,88.6,79.4,69.4,58.0,51.2,44.0,41,38,35,29.95,29.84,0,0,0,0.00
2014-10-11,88.4,79.0,70.6,57.0,51.0,45.0,41,38,35,29.92,29.83,0,0,0,0.00
2014-10-12,88.4,78.4,70.1,58.0,50.7,45.0,40,38,35,29.93,29.85,0,0,0,0.00
2014-10-13,89.3,78.9,71.3,59.0,51.3,45.0,40,38,36,29.95,29.84,0,0,0,0.00
2014-10-14,85.7,77.1,73.9,57.0,50.4,48.0,41,39,38,29.90,29.79,0,0,0,0.44
2014-10-15,82.0,75.7,66.8,53.0,49.0,41.0,41,39,37,29.87,29.79,0,0,0,0.34
2014-10-16,79.8,72.3,66.3,51.0,45.0,40.0,40,38,36,29.87,29.78,0,0,0,0.00
2014-10-17,80.3,70.2,61.0,50.0,42.6,36.0,40,37,34,29.90,29.82,0,0,0,0.00
2014-10-18,81.1,70.4,59.8,52.0,43.7,35.0,40,38,36,29.89,29.80,0,0,0,0.00
2014-10-19,83.6,72.9,62.7,54.0,45.7,38.0,41,38,35,29.91,29.84,0,0,0,0.00
2014-10-20,86.5,74.2,64.2,56.0,46.8,39.0,40,38,34,29.92,29.80,0,0,0,0.00
2014-10-21,84.0,75.4,68.4,54.0,48.0,43.0,40,38,35,29.84,29.78,0,0,0,0.00
2014-10-22,84.7,74.9,67.6,55.0,47.6,42.0,40,38,36,29.87,29.78,0,0,0,0.00
2014-10-23,82.0,71.9,63.5,52.0,44.3,37.0,39,37,35,29.87,29.76,0,0,0,0.03
2014-10-24,80.3,69.8,60.7,50.0,42.4,35.0,39,37,35,29.87,29.75,0,0,0,0.00
2014-10-25,77.9,68.7,60.7,48.0,41.2,35.0,39,37,35,29.88,29.80,0,0,0,0.02
2014-10-26,81.6,68.1,57.0,51.0,40.8,33.0,40,37,33,29.92,29.83,0,0,0,0.00
2014-10-27,83.0,69.8,57.5,52.0,42.3,33.0,40,37,34,29.98,29.89,0,0,0,0.00
2014-10-28,84.7,72.6,61.8,54.0,45.3,37.0,40,38,35,30.04,29.94,0,0,0,0.00
2014-10-29,84.3,73.5,64.0,55.0,46.4,39.0,40,38,36,29.98,29.86,0,0,0,0.00
2014-10-30,83.4,73.3,65.6,54.0,46.5,41.0,40,39,36,29.88,29.75,0,0,0,0.00
2014-10-31,74.6,69.9,64.2,46.0,42.8,37.0,40,38,35,29.82,29.70,0,0,0,0.00
2014-11-1,67.6,61.8,51.6,40.0,34.7,26.0,39,36,34,30.08,29.77,0,0,0,0.00
2014-11-2,65.5,54.0,45.1,36.0,27.7,21.0,38,36,34,30.19,30.08,0,0,0,0.00
2014-11-3,74.2,59.8,45.8,45.0,33.3,22.0,39,37,35,30.22,30.14,0,0,0,0.00
2014-11-4,79.4,66.8,54.8,49.0,39.9,31.0,40,38,35,30.18,30.04,0,0,0,0.00
2014-11-5,82.0,71.0,61.2,52.0,43.8,37.0,40,38,35,30.10,29.97,0,0,0,0.02
2014-11-6,83.2,72.0,65.5,53.0,45.1,40.0,40,38,35,30.02,29.87,0,0,0,0.02
2014-11-7,77.9,68.7,58.4,49.0,42.2,33.0,41,38,36,29.88,29.79,0,0,0,0.00
2014-11-8,75.3,62.8,52.9,46.0,37.1,29.0,41,39,35,29.85,29.75,0,0,0,0.00
2014-11-9,68.3,61.8,57.5,42.0,36.9,34.0,41,40,38,29.83,29.73,0,0,0,0.00
2014-11-10,74.0,65.4,59.3,45.0,39.2,35.0,40,38,35,29.87,29.81,0,0,0,0.00
2014-11-11,74.6,65.4,58.9,45.0,39.0,34.0,41,38,35,29.87,29.79,0,0,0,0.00
2014-11-12,76.8,65.2,56.2,46.0,38.5,32.0,40,38,34,29.95,29.85,0,0,0,0.00
2014-11-13,78.5,65.4,54.5,48.0,39.0,30.0,41,38,34,29.95,29.85,0,0,0,0.00
2014-11-14,68.3,62.6,55.4,40.0,36.9,30.0,40,39,35,30.03,29.88,0,0,0,0.00
2014-11-15,75.8,61.4,49.8,47.0,35.5,26.0,40,38,36,30.11,29.99,0,0,0,0.00
2014-11-16,82.4,69.2,57.8,53.0,42.9,34.0,41,39,36,30.07,29.91,0,0,0,0.19
2014-11-17,81.4,70.7,64.8,53.0,45.3,40.0,41,40,38,29.91,29.78,0,0,0,1.52
2014-11-18,69.6,53.9,46.4,45.0,29.0,21.0,41,39,37,30.18,29.87,0,0,0,0.00
2014-11-19,61.6,49.6,39.9,34.0,24.2,15.0,39,37,36,30.23,30.10,0,0,0,0.00
2014-11-20,66.3,54.7,44.9,38.0,28.8,21.0,40,37,35,30.15,30.03,0,0,0,0.00
2014-11-21,72.0,63.4,52.5,44.0,36.5,27.0,39,37,36,30.14,30.05,0,0,0,0.00
2014-11-22,77.2,71.4,65.0,50.0,44.8,39.0,40,39,38,30.09,29.93,0,0,0,0.01
2014-11-23,84.0,76.6,70.8,55.0,49.8,45.0,40,39,37,29.92,29.74,0,0,0,0.00
2014-11-24,83.0,77.1,71.8,54.0,50.4,46.0,41,39,37,29.89,29.79,0,0,0,0.00
2014-11-25,81.6,75.9,70.4,54.0,48.3,45.0,41,39,39,29.88,29.72,0,0,0,1.84
2014-11-26,73.2,60.0,50.5,48.0,34.7,26.0,41,39,36,30.11,29.72,0,0,0,0.17
2014-11-27,69.9,58.7,50.1,42.0,32.3,26.0,39,37,35,30.17,30.06,0,0,0,0.00
2014-11-28,61.3,51.8,43.8,33.0,25.6,20.0,39,36,34,30.21,30.10,0,0,0,0.00
2014-11-29,72.1,58.2,46.4,43.0,32.3,22.0,40,38,35,30.18,30.09,0,0,0,0.00
2014-11-30,77.2,64.5,53.2,48.0,38.3,29.0,40,38,36,30.19,30.10,0,0,0,0.01
2014-12-1,79.4,68.2,58.1,50.0,41.8,34.0,40,39,36,30.19,30.05,0,0,0,0.00
2014-12-2,77.4,69.6,63.4,49.0,43.4,39.0,40,39,37,30.10,29.98,0,0,0,0.01
2014-12-3,78.8,69.8,63.2,50.0,43.5,38.0,41,39,37,30.06,29.96,0,0,0,0.02
2014-12-4,80.5,69.8,61.2,51.0,43.3,37.0,40,38,36,30.08,29.98,0,0,0,0.00
2014-12-5,79.4,71.3,64.7,51.0,44.8,39.0,40,39,37,30.11,30.02,0,0,0,0.00
2014-12-6,81.8,70.7,64.2,53.0,44.7,40.0,41,39,37,30.10,29.98,0,0,0,0.00
2014-12-7,69.6,65.7,59.0,43.0,40.4,34.0,41,40,39,30.02,29.91,0,0,0,0.01
2014-12-8,64.2,61.2,58.4,39.0,36.4,34.0,40,40,39,30.00,29.90,0,0,0,0.01
2014-12-9,64.0,57.2,53.5,36.0,32.1,29.0,41,39,36,29.99,29.90,0,0,0,0.02
2014-12-10,64.7,55.9,48.3,37.0,30.1,24.0,40,38,35,30.04,29.95,0,0,0,0.00
2014-12-11,64.0,54.7,47.1,37.0,29.7,24.0,40,39,36,30.09,29.98,0,0,0,0.00
2014-12-12,58.0,51.9,46.5,30.0,26.6,23.0,40,38,35,30.16,30.05,0,0,0,0.00
2014-12-13,67.3,53.6,42.6,38.0,27.8,20.0,40,37,33,30.08,29.97,0,0,0,0.02
2014-12-14,69.3,55.0,44.5,39.0,29.2,21.0,40,37,33,30.01,29.92,0,0,0,0.01
2014-12-15,70.9,56.2,44.3,42.0,30.9,21.0,40,38,34,30.03,29.93,0,0,0,0.00
2014-12-16,71.8,57.4,44.3,44.0,32.7,22.0,41,40,36,30.09,30.01,0,0,0,0.02
2014-12-17,73.2,63.9,56.0,46.0,38.4,31.0,41,39,37,30.09,29.98,0,0,0,0.00
2014-12-18,68.1,57.2,46.2,41.0,32.3,23.0,41,39,37,30.08,29.96,0,0,0,0.00
2014-12-19,74.0,60.1,48.8,44.0,33.9,25.0,40,38,34,30.02,29.90,0,0,0,0.02
2014-12-20,78.8,65.1,52.5,49.0,38.7,29.0,40,38,35,29.98,29.89,0,0,0,0.01
2014-12-21,77.6,69.2,60.7,49.0,43.0,36.0,40,39,37,29.96,29.86,0,0,0,0.07
2014-12-22,80.3,72.4,66.8,52.0,46.5,42.0,41,40,38,29.90,29.77,0,0,0,0.01
2014-12-23,82.2,74.5,68.9,53.0,47.9,44.0,41,39,36,29.84,29.73,0,0,0,0.00
2014-12-24,80.3,74.6,66.4,52.0,48.1,41.0,41,39,38,29.87,29.70,0,0,0,0.16
2014-12-25,68.6,63.6,55.4,41.0,37.4,31.0,39,38,36,30.10,29.85,0,0,0,0.00
2014-12-26,72.0,63.2,53.1,44.0,36.8,29.0,40,38,36,30.11,30.04,0,0,0,0.00
2014-12-27,79.6,70.1,62.7,51.0,43.7,37.0,40,39,37,30.13,30.01,0,0,0,0.02
2014-12-28,79.6,71.1,63.5,51.0,44.9,39.0,41,39,37,30.05,29.96,0,0,0,0.00
2014-12-29,79.2,70.5,63.7,51.0,44.7,39.0,41,40,37,30.02,29.92,0,0,0,0.00
2014-12-30,72.7,70.0,67.6,46.0,27.3,43.0,41,25,40,30.09,29.97,0,0,0,0.12
2014-12-31,67.4,65.0,62.7,42.0,39.8,38.0,41,40,39,30.14,30.04,0,0,0,0.00
2015-1-1,74.0,66.3,60.7,47.0,41.0,37.0,41,40,38,30.13,30.00,0,0,0,0.02
2015-1-2,78.8,70.7,65.5,51.0,44.6,41.0,41,40,37,30.13,30.03,0,0,0,0.01